createdAt,value
2019-05-01T00:01:54.324Z,13.58
2019-05-01T00:04:42.161Z,12.37
2019-05-01T00:07:20.749Z,12.93
2019-05-01T00:09:48.953Z,12.80
2019-05-01T00:12:17.156Z,12.33
2019-05-01T00:14:45.364Z,12.40
2019-05-01T00:17:13.577Z,12.60
2019-05-01T00:19:41.808Z,12.00
2019-05-01T00:22:10.038Z,12.70
2019-05-01T00:24:38.231Z,13.90
2019-05-01T00:27:06.440Z,13.75
2019-05-01T00:29:34.635Z,14.18
2019-05-01T00:32:02.840Z,14.65
2019-05-01T00:34:31.052Z,14.75
2019-05-01T00:36:59.256Z,14.00
2019-05-01T00:39:27.453Z,12.80
2019-05-01T00:41:55.656Z,14.75
2019-05-01T00:44:23.858Z,12.98
2019-05-01T00:46:52.090Z,13.40
2019-05-01T00:49:20.296Z,13.15
2019-05-01T00:51:48.491Z,13.93
2019-05-01T00:54:16.705Z,12.30
2019-05-01T00:56:46.544Z,12.28
2019-05-01T00:59:32.441Z,13.15
2019-05-01T01:02:05.274Z,12.88
2019-05-01T01:04:33.472Z,13.55
2019-05-01T01:07:01.689Z,12.37
2019-05-01T01:09:29.889Z,12.95
2019-05-01T01:11:58.130Z,11.57
2019-05-01T01:14:26.327Z,12.45
2019-05-01T01:16:54.569Z,13.40
2019-05-01T01:19:22.802Z,14.18
2019-05-01T01:21:51.030Z,14.95
2019-05-01T01:24:19.262Z,12.30
2019-05-01T01:26:47.501Z,12.18
2019-05-01T01:29:15.692Z,12.47
2019-05-01T01:31:43.892Z,12.35
2019-05-01T01:34:12.096Z,11.00
2019-05-01T01:36:40.301Z,12.03
2019-05-01T01:39:08.508Z,12.53
2019-05-01T01:41:36.716Z,13.10
2019-05-01T01:44:06.556Z,13.38
2019-05-01T01:46:36.396Z,13.78
2019-05-01T01:49:04.607Z,14.65
2019-05-01T01:51:32.809Z,13.00
2019-05-01T01:54:01.021Z,12.43
2019-05-01T01:56:29.216Z,12.50
2019-05-01T01:58:57.428Z,12.90
2019-05-01T02:01:33.204Z,12.98
2019-05-01T02:04:17.947Z,11.95
2019-05-01T02:06:46.712Z,12.65
2019-05-01T02:09:14.942Z,11.70
2019-05-01T02:11:43.172Z,13.50
2019-05-01T02:14:11.376Z,11.78
2019-05-01T02:16:39.572Z,10.90
2019-05-01T02:19:07.786Z,11.15
2019-05-01T02:21:36.018Z,11.08
2019-05-01T02:24:04.222Z,11.10
2019-05-01T02:26:34.066Z,11.12
2019-05-01T02:29:09.642Z,11.53
2019-05-01T02:31:45.374Z,10.98
2019-05-01T02:34:13.585Z,10.28
2019-05-01T02:36:41.777Z,10.85
2019-05-01T02:39:10.082Z,9.23
2019-05-01T02:41:41.723Z,10.70
2019-05-01T02:44:15.045Z,10.95
2019-05-01T02:46:43.254Z,11.20
2019-05-01T02:49:22.990Z,9.95
2019-05-01T02:51:51.226Z,11.03
2019-05-01T02:54:19.424Z,10.95
2019-05-01T02:56:51.939Z,9.53
2019-05-01T02:59:20.137Z,10.30
2019-05-01T03:01:48.421Z,9.33
2019-05-01T03:04:16.652Z,9.88
2019-05-01T03:06:45.055Z,10.90
2019-05-01T03:09:13.248Z,9.35
2019-05-01T03:11:41.490Z,9.45
2019-05-01T03:14:13.033Z,9.40
2019-05-01T03:16:41.252Z,9.23
2019-05-01T03:19:20.105Z,8.83
2019-05-01T03:21:52.913Z,9.03
2019-05-01T03:24:22.748Z,9.98
2019-05-01T03:26:50.995Z,10.38
2019-05-01T03:29:19.800Z,8.83
2019-05-01T03:32:14.611Z,8.55
2019-05-01T03:34:17.980Z,10.03
2019-05-01T03:36:46.179Z,9.85
2019-05-01T03:39:14.378Z,9.45
2019-05-01T03:41:42.581Z,9.65
2019-05-01T03:44:10.781Z,10.40
2019-05-01T03:46:39.019Z,8.85
2019-05-01T03:49:07.218Z,9.65
2019-05-01T03:51:35.427Z,9.38
2019-05-01T03:54:03.621Z,9.18
2019-05-01T03:56:31.824Z,9.08
2019-05-01T03:59:00.018Z,9.60
2019-05-01T04:01:32.724Z,9.00
2019-05-01T04:04:02.566Z,10.80
2019-05-01T04:06:30.769Z,10.25
2019-05-01T04:08:58.959Z,9.68
2019-05-01T04:11:27.206Z,9.08
2019-05-01T04:13:55.403Z,8.53
2019-05-01T04:16:23.610Z,9.45
2019-05-01T04:18:51.820Z,9.35
2019-05-01T04:21:21.725Z,10.23
2019-05-01T04:23:49.951Z,8.98
2019-05-01T04:26:18.160Z,9.05
2019-05-01T04:28:48.062Z,9.25
2019-05-01T04:31:17.914Z,8.88
2019-05-01T04:33:47.737Z,9.95
2019-05-01T04:36:17.574Z,9.05
2019-05-01T04:38:45.769Z,9.40
2019-05-01T04:41:13.999Z,9.80
2019-05-01T04:43:42.235Z,10.13
2019-05-01T04:46:10.461Z,10.80
2019-05-01T04:48:38.702Z,8.45
2019-05-01T04:51:06.896Z,9.58
2019-05-01T04:53:35.104Z,9.60
2019-05-01T04:56:03.409Z,9.13
2019-05-01T04:58:31.604Z,9.33
2019-05-01T05:00:59.838Z,10.55
2019-05-01T05:03:28.344Z,9.73
2019-05-01T05:05:56.536Z,10.25
2019-05-01T05:08:24.858Z,10.15
2019-05-01T05:10:54.688Z,11.00
2019-05-01T05:13:42.359Z,10.75
2019-05-01T05:16:21.085Z,11.73
2019-05-01T05:18:49.332Z,11.05
2019-05-01T05:21:17.552Z,11.20
2019-05-01T05:23:45.806Z,11.35
2019-05-01T05:26:14.008Z,11.18
2019-05-01T05:28:42.220Z,11.68
2019-05-01T05:31:10.542Z,11.40
2019-05-01T05:33:38.739Z,11.40
2019-05-01T05:36:07.014Z,11.33
2019-05-01T05:38:42.790Z,11.80
2019-05-01T05:41:10.984Z,11.05
2019-05-01T05:43:39.191Z,11.50
2019-05-01T05:46:07.395Z,11.03
2019-05-01T05:48:35.629Z,11.08
2019-05-01T05:51:05.431Z,10.53
2019-05-01T05:53:44.337Z,10.88
2019-05-01T05:56:18.740Z,11.78
2019-05-01T05:58:48.577Z,11.53
2019-05-01T06:01:21.398Z,11.55
2019-05-01T06:04:03.362Z,11.48
2019-05-01T06:06:45.015Z,11.63
2019-05-01T06:09:15.571Z,11.12
2019-05-01T06:11:48.996Z,11.57
2019-05-01T06:14:34.911Z,11.03
2019-05-01T06:17:04.744Z,11.08
2019-05-01T06:19:34.619Z,10.93
2019-05-01T06:22:11.634Z,11.28
2019-05-01T06:24:44.577Z,10.78
2019-05-01T06:27:13.722Z,10.33
2019-05-01T06:29:42.799Z,10.55
2019-05-01T06:32:11.176Z,11.03
2019-05-01T06:34:39.414Z,10.70
2019-05-01T06:37:07.678Z,11.25
2019-05-01T06:39:35.879Z,11.15
2019-05-01T06:42:09.824Z,11.20
2019-05-01T06:44:39.109Z,11.65
2019-05-01T06:47:09.122Z,9.83
2019-05-01T06:49:38.990Z,9.65
2019-05-01T06:52:07.960Z,8.78
2019-05-01T06:54:36.174Z,11.28
2019-05-01T06:57:04.446Z,9.78
2019-05-01T06:59:33.404Z,10.70
2019-05-01T07:02:01.669Z,9.58
2019-05-01T07:04:32.444Z,9.58
2019-05-01T07:07:01.974Z,9.98
2019-05-01T07:09:30.332Z,11.53
2019-05-01T07:11:58.537Z,10.75
2019-05-01T07:14:26.745Z,10.70
2019-05-01T07:16:54.955Z,10.93
2019-05-01T07:19:24.799Z,12.15
2019-05-01T07:21:53.003Z,11.53
2019-05-01T07:24:24.103Z,11.45
2019-05-01T07:26:51.148Z,10.28
2019-05-01T07:29:23.923Z,11.78
2019-05-01T07:31:52.139Z,11.65
2019-05-01T07:34:21.732Z,11.55
2019-05-01T07:36:51.767Z,9.83
2019-05-01T07:39:20.028Z,9.98
2019-05-01T07:41:48.220Z,10.82
2019-05-01T07:44:30.017Z,10.32
2019-05-01T07:47:04.404Z,11.25
2019-05-01T07:49:53.108Z,10.10
2019-05-01T07:52:22.195Z,11.20
2019-05-01T07:54:50.408Z,10.00
2019-05-01T07:57:18.629Z,11.20
2019-05-01T07:59:46.903Z,9.43
2019-05-01T08:02:15.194Z,10.50
2019-05-01T08:04:43.431Z,10.28
2019-05-01T08:07:11.644Z,9.70
2019-05-01T08:09:39.860Z,10.00
2019-05-01T08:12:08.081Z,10.75
2019-05-01T08:14:36.286Z,9.68
2019-05-01T08:17:04.530Z,10.85
2019-05-01T08:19:49.165Z,9.78
2019-05-01T08:22:19.066Z,10.40
2019-05-01T08:24:47.269Z,9.08
2019-05-01T08:27:20.321Z,9.40
2019-05-01T08:29:52.041Z,10.55
2019-05-01T08:32:27.906Z,9.67
2019-05-01T08:35:00.559Z,10.35
2019-05-01T08:37:27.710Z,9.15
2019-05-01T08:39:55.958Z,9.20
2019-05-01T08:42:24.233Z,9.75
2019-05-01T08:44:54.111Z,10.68
2019-05-01T08:47:25.934Z,10.65
2019-05-01T08:50:04.292Z,9.05
2019-05-01T08:52:32.501Z,9.00
2019-05-01T08:55:04.353Z,9.83
2019-05-01T08:57:34.465Z,12.25
2019-05-01T09:00:01.673Z,11.60
2019-05-01T09:02:30.128Z,10.25
2019-05-01T09:05:02.441Z,9.90
2019-05-01T09:07:28.271Z,9.75
2019-05-01T09:09:56.464Z,10.23
2019-05-01T09:12:24.668Z,8.90
2019-05-01T09:14:52.876Z,8.55
2019-05-01T09:17:21.149Z,7.00
2019-05-01T09:19:49.424Z,6.83
2019-05-01T09:22:17.644Z,9.03
2019-05-01T09:24:46.802Z,10.15
2019-05-01T09:27:27.545Z,8.18
2019-05-01T09:29:54.252Z,9.75
2019-05-01T09:32:22.474Z,9.93
2019-05-01T09:34:50.720Z,10.40
2019-05-01T09:37:18.980Z,10.50
2019-05-01T09:39:47.573Z,9.73
2019-05-01T09:42:22.746Z,8.55
2019-05-01T09:44:45.914Z,9.00
2019-05-01T09:47:14.184Z,8.60
2019-05-01T09:49:42.386Z,8.93
2019-05-01T09:52:18.907Z,7.53
2019-05-01T09:54:49.487Z,8.10
2019-05-01T09:57:17.795Z,7.37
2019-05-01T09:59:46.030Z,8.85
2019-05-01T10:02:14.505Z,9.80
2019-05-01T10:04:42.721Z,9.50
2019-05-01T10:07:10.911Z,8.78
2019-05-01T10:09:39.121Z,9.28
2019-05-01T10:12:11.725Z,8.73
2019-05-01T10:14:37.577Z,8.45
2019-05-01T10:17:06.060Z,9.63
2019-05-01T10:19:34.272Z,9.83
2019-05-01T10:22:03.718Z,9.70
2019-05-01T10:24:37.301Z,7.97
2019-05-01T10:27:03.652Z,10.28
2019-05-01T10:29:48.137Z,8.40
2019-05-01T10:32:21.777Z,6.87
2019-05-01T10:34:58.230Z,8.20
2019-05-01T10:37:28.290Z,8.03
2019-05-01T10:39:56.440Z,8.10
2019-05-01T10:42:24.649Z,6.95
2019-05-01T10:44:52.840Z,7.87
2019-05-01T10:47:21.089Z,8.23
2019-05-01T10:49:49.297Z,7.85
2019-05-01T10:52:17.496Z,6.58
2019-05-01T10:54:46.612Z,7.97
2019-05-01T10:57:14.893Z,7.47
2019-05-01T10:59:43.091Z,7.00
2019-05-01T11:02:12.945Z,8.30
2019-05-01T11:04:41.189Z,7.65
2019-05-01T11:07:09.414Z,8.75
2019-05-01T11:09:37.629Z,8.95
2019-05-01T11:12:05.873Z,6.80
2019-05-01T11:14:34.084Z,7.55
2019-05-01T11:17:02.276Z,8.48
2019-05-01T11:19:30.484Z,8.65
2019-05-01T11:21:58.693Z,6.83
2019-05-01T11:24:26.897Z,8.00
2019-05-01T11:26:56.739Z,8.28
2019-05-01T11:29:25.062Z,7.65
2019-05-01T11:31:57.679Z,8.38
2019-05-01T11:34:39.367Z,8.53
2019-05-01T11:37:21.036Z,7.53
2019-05-01T11:40:03.070Z,7.65
2019-05-01T11:42:31.322Z,7.58
2019-05-01T11:44:59.533Z,6.67
2019-05-01T11:47:27.800Z,7.97
2019-05-01T11:49:56.016Z,7.53
2019-05-01T11:52:24.221Z,6.62
2019-05-01T11:54:52.424Z,6.87
2019-05-01T11:57:20.763Z,7.10
2019-05-01T11:59:48.985Z,7.05
2019-05-01T12:02:17.222Z,6.58
2019-05-01T12:04:45.458Z,6.00
2019-05-01T12:07:13.682Z,6.33
2019-05-01T12:09:41.884Z,6.40
2019-05-01T12:12:11.724Z,7.15
2019-05-01T12:14:39.941Z,6.47
2019-05-01T12:17:09.772Z,5.97
2019-05-01T12:19:38.006Z,6.95
2019-05-01T12:22:06.210Z,7.25
2019-05-01T12:24:34.412Z,7.70
2019-05-01T12:27:02.628Z,6.90
2019-05-01T12:29:30.823Z,7.37
2019-05-01T12:31:59.049Z,7.25
2019-05-01T12:34:27.261Z,8.58
2019-05-01T12:37:13.231Z,7.80
2019-05-01T12:39:41.441Z,8.38
2019-05-01T12:42:09.682Z,9.15
2019-05-01T12:44:37.876Z,7.15
2019-05-01T12:47:09.381Z,7.83
2019-05-01T12:49:37.592Z,8.40
2019-05-01T12:52:10.726Z,8.33
2019-05-01T12:54:40.782Z,8.08
2019-05-01T12:57:09.103Z,8.65
2019-05-01T12:59:37.297Z,8.83
2019-05-01T13:02:05.512Z,9.05
2019-05-01T13:04:33.745Z,8.25
2019-05-01T13:07:01.965Z,7.22
2019-05-01T13:09:30.184Z,7.80
2019-05-01T13:11:58.396Z,7.22
2019-05-01T13:14:26.607Z,7.00
2019-05-01T13:16:54.849Z,8.18
2019-05-01T13:19:23.085Z,7.40
2019-05-01T13:21:51.289Z,7.90
2019-05-01T13:24:19.505Z,7.08
2019-05-01T13:26:49.397Z,7.03
2019-05-01T13:29:22.226Z,6.97
2019-05-01T13:32:08.041Z,6.67
2019-05-01T13:34:36.245Z,8.20
2019-05-01T13:37:04.452Z,7.42
2019-05-01T13:39:32.687Z,7.15
2019-05-01T13:42:00.902Z,7.12
2019-05-01T13:44:29.092Z,7.00
2019-05-01T13:46:57.301Z,7.67
2019-05-01T13:49:25.504Z,7.33
2019-05-01T13:51:53.712Z,7.25
2019-05-01T13:54:21.907Z,7.35
2019-05-01T13:56:50.121Z,7.33
2019-05-01T13:59:18.358Z,8.03
2019-05-01T14:01:46.603Z,8.30
2019-05-01T14:04:15.668Z,7.05
2019-05-01T14:06:43.877Z,6.75
2019-05-01T14:09:13.728Z,7.72
2019-05-01T14:11:41.974Z,6.78
2019-05-01T14:14:10.175Z,7.40
2019-05-01T14:16:38.415Z,6.75
2019-05-01T14:19:06.625Z,6.60
2019-05-01T14:21:37.656Z,7.85
2019-05-01T14:24:13.323Z,7.78
2019-05-01T14:26:41.537Z,8.20
2019-05-01T14:29:09.774Z,7.28
2019-05-01T14:31:37.972Z,7.03
2019-05-01T14:34:06.272Z,7.35
2019-05-01T14:36:34.501Z,7.72
2019-05-01T14:39:02.900Z,7.60
2019-05-01T14:41:31.092Z,7.55
2019-05-01T14:43:59.350Z,7.62
2019-05-01T14:46:27.611Z,7.90
2019-05-01T14:48:55.819Z,7.85
2019-05-01T14:51:24.033Z,8.63
2019-05-01T14:53:52.240Z,7.72
2019-05-01T14:56:20.451Z,9.55
2019-05-01T14:58:48.665Z,7.53
2019-05-01T15:01:16.868Z,6.33
2019-05-01T15:03:45.079Z,7.42
2019-05-01T15:06:13.268Z,6.72
2019-05-01T15:08:41.481Z,6.05
2019-05-01T15:11:09.710Z,6.83
2019-05-01T15:13:55.512Z,6.78
2019-05-01T15:16:28.264Z,7.75
2019-05-01T15:19:03.828Z,7.10
2019-05-01T15:21:32.036Z,7.70
2019-05-01T15:24:00.236Z,7.45
2019-05-01T15:26:28.443Z,6.78
2019-05-01T15:28:56.645Z,7.17
2019-05-01T15:31:24.840Z,6.87
2019-05-01T15:33:53.044Z,7.20
2019-05-01T15:36:21.255Z,6.42
2019-05-01T15:38:49.465Z,7.55
2019-05-01T15:41:35.457Z,7.03
2019-05-01T15:44:05.361Z,7.37
2019-05-01T15:46:35.228Z,7.00
2019-05-01T15:49:03.426Z,7.03
2019-05-01T15:51:31.642Z,7.17
2019-05-01T15:53:59.888Z,8.20
2019-05-01T15:56:28.104Z,8.75
2019-05-01T15:58:56.325Z,8.23
2019-05-01T16:01:24.521Z,8.95
2019-05-01T16:03:52.739Z,8.28
2019-05-01T16:06:21.101Z,8.48
2019-05-01T16:08:49.370Z,8.55
2019-05-01T16:11:19.226Z,7.97
2019-05-01T16:13:47.478Z,7.20
2019-05-01T16:16:15.671Z,8.38
2019-05-01T16:18:43.870Z,8.25
2019-05-01T16:21:12.081Z,7.75
2019-05-01T16:23:40.280Z,7.65
2019-05-01T16:26:09.810Z,8.00
2019-05-01T16:28:38.101Z,8.55
2019-05-01T16:31:06.398Z,7.67
2019-05-01T16:33:34.600Z,8.03
2019-05-01T16:36:02.846Z,8.60
2019-05-01T16:38:32.692Z,7.22
2019-05-01T16:41:05.594Z,8.93
2019-05-01T16:43:33.905Z,9.10
2019-05-01T16:46:02.188Z,7.67
2019-05-01T16:48:30.396Z,7.50
2019-05-01T16:50:58.646Z,9.43
2019-05-01T16:53:26.844Z,8.70
2019-05-01T16:55:55.052Z,8.85
2019-05-01T16:58:23.256Z,7.60
2019-05-01T17:00:59.477Z,7.72
2019-05-01T17:03:31.970Z,9.63
2019-05-01T17:06:17.976Z,9.05
2019-05-01T17:08:50.832Z,8.50
2019-05-01T17:11:20.675Z,9.50
2019-05-01T17:13:48.880Z,9.43
2019-05-01T17:16:17.094Z,9.60
2019-05-01T17:18:45.338Z,8.30
2019-05-01T17:21:13.659Z,8.50
2019-05-01T17:23:41.855Z,9.13
2019-05-01T17:26:10.057Z,7.95
2019-05-01T17:28:38.291Z,8.43
2019-05-01T17:31:06.522Z,9.15
2019-05-01T17:33:34.724Z,8.80
2019-05-01T17:36:02.928Z,7.55
2019-05-01T17:38:31.125Z,7.62
2019-05-01T17:40:59.366Z,7.58
2019-05-01T17:43:27.564Z,7.25
2019-05-01T17:45:55.768Z,7.35
2019-05-01T17:48:23.971Z,8.18
2019-05-01T17:50:55.147Z,7.50
2019-05-01T17:53:22.123Z,7.90
2019-05-01T17:55:50.373Z,7.30
2019-05-01T17:58:18.581Z,7.60
2019-05-01T18:00:54.389Z,8.33
2019-05-01T18:03:24.261Z,7.75
2019-05-01T18:06:08.964Z,8.45
2019-05-01T18:08:37.159Z,8.70
2019-05-01T18:11:09.329Z,8.45
2019-05-01T18:13:35.337Z,8.65
2019-05-01T18:16:03.530Z,8.33
2019-05-01T18:18:31.724Z,8.65
2019-05-01T18:21:00.030Z,8.63
2019-05-01T18:23:47.743Z,8.40
2019-05-01T18:26:23.111Z,8.30
2019-05-01T18:29:07.748Z,8.68
2019-05-01T18:31:36.000Z,9.43
2019-05-01T18:34:04.602Z,8.55
2019-05-01T18:36:34.533Z,9.13
2019-05-01T18:39:16.654Z,9.05
2019-05-01T18:42:00.474Z,9.43
2019-05-01T18:44:28.714Z,9.25
2019-05-01T18:46:56.936Z,9.03
2019-05-01T18:49:25.135Z,8.60
2019-05-01T18:51:53.373Z,12.68
2019-05-01T18:54:21.579Z,14.18
2019-05-01T18:56:49.784Z,12.15
2019-05-01T18:59:17.993Z,9.98
2019-05-01T19:01:48.576Z,10.28
2019-05-01T19:04:18.364Z,9.90
2019-05-01T19:06:46.091Z,10.13
2019-05-01T19:09:15.414Z,8.60
2019-05-01T19:11:43.745Z,8.85
2019-05-01T19:14:12.227Z,9.23
2019-05-01T19:16:45.156Z,8.70
2019-05-01T19:19:10.368Z,8.70
2019-05-01T19:21:41.795Z,8.88
2019-05-01T19:24:09.297Z,9.63
2019-05-01T19:26:38.299Z,8.98
2019-05-01T19:29:07.420Z,8.63
2019-05-01T19:31:35.625Z,9.13
2019-05-01T19:34:03.868Z,9.48
2019-05-01T19:36:32.108Z,9.75
2019-05-01T19:39:00.332Z,10.05
2019-05-01T19:41:28.522Z,9.83
2019-05-01T19:43:56.936Z,9.30
2019-05-01T19:46:25.140Z,8.45
2019-05-01T19:48:53.399Z,9.68
2019-05-01T19:51:24.178Z,8.73
2019-05-01T19:53:53.395Z,8.33
2019-05-01T19:56:22.745Z,9.20
2019-05-01T19:58:51.302Z,9.00
2019-05-01T20:01:19.508Z,9.00
2019-05-01T20:03:47.713Z,9.45
2019-05-01T20:06:15.975Z,8.58
2019-05-01T20:08:44.208Z,8.55
2019-05-01T20:11:12.408Z,9.48
2019-05-01T20:13:40.607Z,8.83
2019-05-01T20:16:09.828Z,8.15
2019-05-01T20:18:38.092Z,7.97
2019-05-01T20:21:06.393Z,8.28
2019-05-01T20:23:34.623Z,8.00
2019-05-01T20:26:02.824Z,8.98
2019-05-01T20:28:31.024Z,8.50
2019-05-01T20:30:59.253Z,8.88
2019-05-01T20:33:27.440Z,8.08
2019-05-01T20:35:55.656Z,8.48
2019-05-01T20:38:23.851Z,8.75
2019-05-01T20:40:52.056Z,8.35
2019-05-01T20:43:20.252Z,8.45
2019-05-01T20:45:49.489Z,7.58
2019-05-01T20:48:23.428Z,8.38
2019-05-01T20:50:48.387Z,8.23
2019-05-01T20:53:16.588Z,8.18
2019-05-01T20:55:46.463Z,8.15
2019-05-01T20:58:21.077Z,8.35
2019-05-01T21:00:53.282Z,7.42
2019-05-01T21:03:20.873Z,8.08
2019-05-01T21:06:02.892Z,7.97
2019-05-01T21:08:47.236Z,7.10
2019-05-01T21:11:17.081Z,8.03
2019-05-01T21:13:45.280Z,7.20
2019-05-01T21:16:13.485Z,7.47
2019-05-01T21:18:41.718Z,7.17
2019-05-01T21:21:09.952Z,7.80
2019-05-01T21:23:38.144Z,7.17
2019-05-01T21:26:06.381Z,6.97
2019-05-01T21:28:34.582Z,7.22
2019-05-01T21:31:03.850Z,7.50
2019-05-01T21:33:33.887Z,8.38
2019-05-01T21:36:04.933Z,8.15
2019-05-01T21:38:32.332Z,7.87
2019-05-01T21:41:02.534Z,7.47
2019-05-01T21:43:35.189Z,7.83
2019-05-01T21:46:00.385Z,8.20
2019-05-01T21:48:28.583Z,7.72
2019-05-01T21:50:58.045Z,7.28
2019-05-01T21:53:26.716Z,6.17
2019-05-01T21:55:54.911Z,7.87
2019-05-01T21:58:28.278Z,7.37
2019-05-01T22:00:55.210Z,6.60
2019-05-01T22:03:23.283Z,6.78
2019-05-01T22:05:51.510Z,6.58
2019-05-01T22:08:19.700Z,7.03
2019-05-01T22:10:52.060Z,6.75
2019-05-01T22:13:20.435Z,6.65
2019-05-01T22:15:49.443Z,7.45
2019-05-01T22:18:19.275Z,7.05
2019-05-01T22:20:57.684Z,7.78
2019-05-01T22:23:27.520Z,7.62
2019-05-01T22:25:57.372Z,6.62
2019-05-01T22:28:36.178Z,6.47
2019-05-01T22:31:21.798Z,6.72
2019-05-01T22:33:49.431Z,7.10
2019-05-01T22:36:17.641Z,5.90
2019-05-01T22:38:46.695Z,7.47
2019-05-01T22:41:14.921Z,6.55
2019-05-01T22:43:43.115Z,6.62
2019-05-01T22:46:13.006Z,6.87
2019-05-01T22:48:41.191Z,6.12
2019-05-01T22:51:13.983Z,7.33
2019-05-01T22:53:42.226Z,7.70
2019-05-01T22:56:10.458Z,7.03
2019-05-01T22:58:38.661Z,7.58
2019-05-01T23:01:07.320Z,7.10
2019-05-01T23:03:41.047Z,7.00
2019-05-01T23:06:07.892Z,5.95
2019-05-01T23:08:36.262Z,6.75
2019-05-01T23:11:04.447Z,6.33
2019-05-01T23:13:32.693Z,6.75
2019-05-01T23:16:01.053Z,7.28
2019-05-01T23:18:29.290Z,6.80
2019-05-01T23:20:57.517Z,6.03
2019-05-01T23:23:25.717Z,5.85
2019-05-01T23:25:53.917Z,6.25
2019-05-01T23:28:22.115Z,5.95
2019-05-01T23:30:50.393Z,5.90
2019-05-01T23:33:18.592Z,5.87
2019-05-01T23:35:46.827Z,5.78
2019-05-01T23:38:15.059Z,6.20
2019-05-01T23:40:46.091Z,5.85
2019-05-01T23:43:13.230Z,6.25
2019-05-01T23:45:41.425Z,6.08
2019-05-01T23:48:09.625Z,6.00
2019-05-01T23:50:37.856Z,6.47
2019-05-01T23:53:09.189Z,6.10
2019-05-01T23:55:35.959Z,5.50
2019-05-01T23:58:04.161Z,5.90
